KFNT/FNT METAR and TAF weather

Enter ICAO airport designator
Station Type Date Time Source
KFNT METAR 2021/05/15 23:53 UTC NOAA

KFNT 152353Z 20004KT 10SM OVC100 19/02 A3017 RMK AO2 SLP216 T01890017 10222 20189 56007


Station Type Date Time Source
KFNT Decoded METAR 2021/05/15 23:53 UTC NOAA

FLINT BISHOP INTERNATIONAL AIRPORT, MI, United States (KFNT) 42-58N 83-45W 233M
May 15, 2021 - 07:53 PM EDT / 2021.05.15 2353 UTC
Wind: from the SSW (200 degrees) at 5 MPH (4 KT):0
Visibility: 10 mile(s):0
Sky conditions: overcast
Temperature: 66.0 F (18.9 C)
Dew Point: 35.1 F (1.7 C)
Relative Humidity: 31%
Pressure (altimeter): 30.17 in. Hg (1021 hPa)
Pressure tendency: 0.02 inches (0.7 hPa) lower than three hours ago
ob: KFNT 152353Z 20004KT 10SM OVC100 19/02 A3017 RMK AO2 SLP216 T01890017 10222 20189 56007
cycle: 0

Station Type Date Time Source
KFNT TAF 2021/05/15 18:24 UTC NOAA

TAF KFNT 151723Z 1518/1618 28008KT P6SM BKN090 BKN200
FM152200 16010KT P6SM OVC100
FM160200 20005KT P6SM OVC050
FM160600 VRB03KT P6SM OVC040
TEMPO 1606/1610 6SM -SHRA OVC030
FM161500 17006KT P6SM BKN060

Example: see airport list